Terminal Aerodrome Forecast
Issued by NWS Twin Cities, MN

Home | Current Version | Previous Version | Text Only | Print | Product List | Glossary On
Versions: 1 2 3 4 5 6 7 8 9 10 11 12 13
000
FTUS43 KMPX 010500
TAFSTC
TAF
KSTC 010520Z 0106/0206 VRB02KT P6SM SKC
      TEMPO 0110/0112 3SM BR
     FM011600 33006KT P6SM SCT050
     FM020100 VRB02KT P6SM FEW250=

USA.gov is the U.S. government's official web portal to all federal, state and local government web resources and services.